Nearby METAR Reports

(scroll for additional cities)

KPSP - Palm Springs, California, USA
Distance from station: WNW 7mi, 11km
Updated: Sun, 22-Oct-2017 1:53am PDT
Clear
Clear
 Wind from N
Wind: N 9 mph , 15 km/h
Temperature: 66°F , 19°C
Dew Point: 19°F , -7°C
Humidity: 17%
Barometer: 30.15 inHg , 1021 hPa
Clouds: Clear
Visibility: 10 miles , 16 km
2017/10/22 08:53 KPSP 220853Z 35008KT 10SM CLR 19/M07 A3015 RMK AO2 SLP207 T01891067 53002
KTRM - Thermal/Palm Spg, California, USA
Distance from station: SE 16mi, 26km
Updated: Sun, 22-Oct-2017 1:52am PDT
Clear
Clear
 Wind from N
Wind: N 7 mph , 11 km/h
Temperature: 64°F , 18°C
Dew Point: 27°F , -3°C
Humidity: 24%
Barometer: 30.08 inHg , 1018.6 hPa
Clouds: Clear
Visibility: 10 miles , 16 km
2017/10/22 08:52 KTRM 220852Z AUTO 36006KT 10SM CLR 18/M03 A3008 RMK AO2 SLP189 T01831028 51001
 
KNXP - Twentynine Palms, California, USA
Distance from station: NNE 37mi, 60km
Updated: Sun, 22-Oct-2017 1:56am PDT
Clear
Clear
 Wind from W
Wind: W 16 mph , 26 km/h
Temperature: 61°F , 16°C
Dew Point: 10°F , -12°C
Humidity: 13%
Barometer: 30.30 inHg , 1026.1 hPa
Clouds: Clear
Visibility: 10 miles , 16 km
2017/10/22 08:56 KNXP 220856Z AUTO 28014KT 10SM CLR 16/M12 A3030 RMK AO2 SLP232 T01561117 53004 $
KL35 - Big Bear City, California, USA
Distance from station: NW 43mi, 69km
Updated: Sun, 22-Oct-2017 2:35am PDT
Clear
Clear
 Wind from calm
Wind: Calm
Temperature: 32°F , 0°C
Dew Point: 18°F , -8°C
Humidity: 55%
Barometer: 30.41 inHg , 1029.8 hPa
Clouds: Clear
Visibility: 10 miles , 16 km
2017/10/22 09:35 KL35 220935Z AUTO 00000KT 10SM CLR 00/M08 A3041 RMK AO2
 
KF70 - Murrieta/Temecula, California, USA
Distance from station: WSW 45mi, 73km
Updated: Sun, 22-Oct-2017 2:35am PDT
Clear
Clear
 Wind from NNE
Wind: NNE 5 mph , 7 km/h
Temperature: 55°F , 13°C
Dew Point: 32°F , 0°C
Humidity: 41%
Barometer: 30.15 inHg , 1021 hPa
Clouds: Clear
Visibility: 10 miles , 16 km
2017/10/22 09:35 KF70 220935Z AUTO 02004KT 10SM CLR 13/M00 A3015 RMK AO1
KRIV - Riverside/March, California, USA
Distance from station: W 51mi, 82km
Updated: Sun, 22-Oct-2017 1:58am PDT
Clear
Clear
 Wind from calm
Wind: Calm
Temperature: 52°F , 11°C
Dew Point: 30°F , -1°C
Humidity: 44%
Barometer: 30.16 inHg , 1021.3 hPa
Clouds: Clear
Visibility: 10 miles , 16 km
2017/10/22 08:58 KRIV 220858Z AUTO 00000KT 10SM CLR 11/M01 A3016 RMK AO2 SLP205 T01131009 52006
 
KSBD - San Bernardino, California, USA
Distance from station: WNW 54mi, 86km
Updated: Sun, 22-Oct-2017 2:38am PDT
Clear
Clear
 Wind from ENE
Wind: ENE 3 mph , 6 km/h
Temperature: 57°F , 14°C
Dew Point: 27°F , -3°C
Humidity: 31%
Barometer: 30.15 inHg , 1021 hPa
Clouds: Clear
Visibility: 10 miles , 16 km
2017/10/22 09:38 KSBD 220938Z AUTO 07003KT 10SM CLR 14/M03 A3015 RMK AO2 T01381030
KRNM - Ramona, California, USA
Distance from station: SSW 60mi, 96km
Updated: Sun, 22-Oct-2017 1:53am PDT
Clear
Clear
 Wind from SE
Wind: SE 7 mph , 11 km/h
Temperature: 64°F , 18°C
Dew Point: 27°F , -3°C
Humidity: 24%
Barometer: 30.12 inHg , 1020 hPa
Clouds: Clear
Visibility: 10 miles , 16 km
2017/10/22 08:53 KRNM 220853Z AUTO 13006KT 10SM CLR 18/M03 A3012 RMK AO2 SLP187 T01781033 52005 $
 
KRAL - Riverside, California, USA
Distance from station: W 62mi, 100km
Updated: Sun, 22-Oct-2017 1:53am PDT
Clear
Clear
 Wind from E
Wind: E 7 mph , 11 km/h
Temperature: 61°F , 16°C
Dew Point: 32°F , 0°C
Humidity: 34%
Barometer: 30.13 inHg , 1020.3 hPa
Clouds: Clear
Visibility: 10 miles , 16 km
2017/10/22 08:53 KRAL 220853Z AUTO 08006KT 10SM CLR 16/00 A3013 RMK AO2 SLP189 T01610000 51007
KOKB - Oceanside, California, USA
Distance from station: SW 68mi, 109km
Updated: Sun, 22-Oct-2017 1:52am PDT
Clear
Clear
 Wind from NNE
Wind: NNE 6 mph , 9 km/h
Temperature: 54°F , 12°C
Dew Point: 52°F , 11°C
Humidity: 94%
Barometer: 30.08 inHg , 1018.6 hPa
Clouds: Clear
Visibility: 10 miles , 16 km
2017/10/22 08:52 KOKB 220852Z AUTO 03005KT 10SM CLR 12/11 A3008 RMK AO2 SLP185 T01220106 50001
 
KONT - Ontario, California, USA
Distance from station: WNW 71mi, 114km
Updated: Sun, 22-Oct-2017 1:53am PDT
Clear
Clear
 Wind from calm
Wind: Calm
Temperature: 63°F , 17°C
Dew Point: 37°F , 3°C
Humidity: 39%
Barometer: 30.13 inHg , 1020.3 hPa
Clouds: Clear
Visibility: 10 miles , 16 km
2017/10/22 08:53 KONT 220853Z 00000KT 10SM CLR 17/03 A3013 RMK AO2 SLP192 T01670033 51009
KNJK - El Centro Naf, California, USA
Distance from station: SSE 78mi, 126km
Updated: Sun, 22-Oct-2017 1:56am PDT
Clear
Clear
 Wind from SW
Wind: SW 5 mph , 7 km/h
Temperature: 61°F , 16°C
Dew Point: 25°F , -4°C
Humidity: 25%
Barometer: 30.11 inHg , 1019.6 hPa
Clouds: Clear
Visibility: 10 miles , 16 km
2017/10/22 08:56 KNJK 220856Z AUTO 23004KT 10SM CLR 16/M04 A3011 RMK AO2 SLP212 T01561039 53004 $
 
KSEE - San Diego/Santee, California, USA
Distance from station: SSW 74mi, 120km
Updated: Sun, 22-Oct-2017 2:35am PDT

 Wind from calm
Wind: Calm
Temperature: 55°F , 13°C
Dew Point: 48°F , 9°C
Humidity: 77%
Barometer: 30.10 inHg , 1019.3 hPa
Visibility: 10 miles , 16 km
2017/10/22 09:35 KSEE 220935Z AUTO 00000KT 10SM 13/09 A3010 RMK AO2
KCNO - Chino, California, USA
Distance from station: W 72mi, 116km
Updated: Sun, 22-Oct-2017 1:53am PDT
Clear
Clear
 Wind from calm
Wind: Calm
Temperature: 57°F , 14°C
Dew Point: 45°F , 7°C
Humidity: 63%
Barometer: 30.14 inHg , 1020.7 hPa
Clouds: Clear
Visibility: 7 miles , 11 km
2017/10/22 08:53 KCNO 220853Z 00000KT 7SM CLR 14/07 A3014 RMK AO2 SLP202 T01390072 52010